sensor_id;sensor_type;location;lat;lon;timestamp;pressure;altitude;pressure_sealevel;temperature;humidity
20897;BME280;10608;42.600;23.398;2023-11-21T00:00:44;39902.16;;;-138.15;75.06
20897;BME280;10608;42.600;23.398;2023-11-21T00:03:11;39884.47;;;-138.15;75.21
20897;BME280;10608;42.600;23.398;2023-11-21T00:05:40;39923.78;;;-138.15;75.21
20897;BME280;10608;42.600;23.398;2023-11-21T00:08:10;39900.19;;;-138.15;74.51
20897;BME280;10608;42.600;23.398;2023-11-21T00:10:35;39880.53;;;-138.15;74.73
20897;BME280;10608;42.600;23.398;2023-11-21T00:13:03;39823.53;;;-138.15;74.95
20897;BME280;10608;42.600;23.398;2023-11-21T00:15:28;39825.50;;;-138.15;74.72
20897;BME280;10608;42.600;23.398;2023-11-21T00:17:54;39799.94;;;-138.15;74.87
20897;BME280;10608;42.600;23.398;2023-11-21T00:20:21;39681.97;;;-138.15;74.96
20897;BME280;10608;42.600;23.398;2023-11-21T00:22:47;39807.81;;;-138.15;75.37
20897;BME280;10608;42.600;23.398;2023-11-21T00:25:13;39764.53;;;-138.15;75.89
20897;BME280;10608;42.600;23.398;2023-11-21T00:27:41;39737.03;;;-138.15;76.30
20897;BME280;10608;42.600;23.398;2023-11-21T00:30:07;39715.41;;;-138.15;76.84
20897;BME280;10608;42.600;23.398;2023-11-21T00:32:35;39630.88;;;-138.15;76.87
20897;BME280;10608;42.600;23.398;2023-11-21T00:35:01;39597.44;;;-138.15;77.48
20897;BME280;10608;42.600;23.398;2023-11-21T00:37:26;39546.34;;;-138.15;77.81
20897;BME280;10608;42.600;23.398;2023-11-21T00:39:51;39489.31;;;-138.15;78.12
20897;BME280;10608;42.600;23.398;2023-11-21T00:42:17;39446.06;;;-138.15;77.44
20897;BME280;10608;42.600;23.398;2023-11-21T00:44:42;39406.75;;;-138.15;77.72
20897;BME280;10608;42.600;23.398;2023-11-21T00:47:08;39400.84;;;-138.15;77.10
20897;BME280;10608;42.600;23.398;2023-11-21T00:49:33;39383.16;;;-138.15;76.88
20897;BME280;10608;42.600;23.398;2023-11-21T00:51:59;39383.16;;;-138.15;76.96
20897;BME280;10608;42.600;23.398;2023-11-21T00:54:24;39393.00;;;-138.15;76.81
20897;BME280;10608;42.600;23.398;2023-11-21T00:56:49;39359.56;;;-138.15;77.14
20897;BME280;10608;42.600;23.398;2023-11-21T00:59:15;39334.03;;;-138.15;77.15
20897;BME280;10608;42.600;23.398;2023-11-21T01:01:40;39324.19;;;-138.15;77.25
20897;BME280;10608;42.600;23.398;2023-11-21T01:04:06;39302.56;;;-138.15;76.79
20897;BME280;10608;42.600;23.398;2023-11-21T01:06:34;39357.63;;;-138.15;76.58
20897;BME280;10608;42.600;23.398;2023-11-21T01:08:59;39339.91;;;-138.15;76.74
20897;BME280;10608;42.600;23.398;2023-11-21T01:11:26;39277.00;;;-138.15;77.20
20897;BME280;10608;42.600;23.398;2023-11-21T01:13:51;39249.50;;;-138.15;77.13
20897;BME280;10608;42.600;23.398;2023-11-21T01:16:18;39233.78;;;-138.15;77.83
20897;BME280;10608;42.600;23.398;2023-11-21T01:18:43;39200.34;;;-138.15;78.47
20897;BME280;10608;42.600;23.398;2023-11-21T01:21:09;39141.38;;;-138.15;78.96
20897;BME280;10608;42.600;23.398;2023-11-21T01:23:34;39119.75;;;-138.15;79.35
20897;BME280;10608;42.600;23.398;2023-11-21T01:26:00;39052.94;;;-138.15;79.97
20897;BME280;10608;42.600;23.398;2023-11-21T01:28:25;38988.06;;;-138.15;80.08
20897;BME280;10608;42.600;23.398;2023-11-21T01:30:51;38921.22;;;-138.15;80.56
20897;BME280;10608;42.600;23.398;2023-11-21T01:33:18;38876.03;;;-138.15;80.62
20897;BME280;10608;42.600;23.398;2023-11-21T01:35:43;38844.56;;;-138.15;80.39
20897;BME280;10608;42.600;23.398;2023-11-21T01:38:09;38828.84;;;-138.15;80.82
20897;BME280;10608;42.600;23.398;2023-11-21T01:40:35;38748.28;;;-138.15;80.76
20897;BME280;10608;42.600;23.398;2023-11-21T01:43:01;38695.19;;;-138.15;80.72
20897;BME280;10608;42.600;23.398;2023-11-21T01:45:29;38703.06;;;-138.15;80.53
20897;BME280;10608;42.600;23.398;2023-11-21T01:47:58;38655.91;;;-138.15;81.26
20897;BME280;10608;42.600;23.398;2023-11-21T01:50:25;38618.56;;;-138.15;81.66
20897;BME280;10608;42.600;23.398;2023-11-21T01:52:50;38530.09;;;-138.15;82.23
20897;BME280;10608;42.600;23.398;2023-11-21T01:55:17;38496.69;;;-138.15;82.34
20897;BME280;10608;42.600;23.398;2023-11-21T01:57:44;38469.19;;;-138.15;82.12
20897;BME280;10608;42.600;23.398;2023-11-21T02:00:11;38398.44;;;-138.15;81.34
20897;BME280;10608;42.600;23.398;2023-11-21T02:02:45;38453.47;;;-138.15;81.50
20897;BME280;10608;42.600;23.398;2023-11-21T02:05:11;38416.13;;;-138.15;81.15
20897;BME280;10608;42.600;23.398;2023-11-21T02:07:40;38412.19;;;-138.15;81.21
20897;BME280;10608;42.600;23.398;2023-11-21T02:10:09;38414.16;;;-138.15;80.62
20897;BME280;10608;42.600;23.398;2023-11-21T02:12:35;38455.44;;;-138.15;79.99
20897;BME280;10608;42.600;23.398;2023-11-21T02:15:02;38459.34;;;-138.15;80.62
20897;BME280;10608;42.600;23.398;2023-11-21T02:17:30;38439.69;;;-138.15;80.93
20897;BME280;10608;42.600;23.398;2023-11-21T02:19:55;38392.53;;;-138.15;81.68
20897;BME280;10608;42.600;23.398;2023-11-21T02:22:21;38390.56;;;-138.15;81.69
20897;BME280;10608;42.600;23.398;2023-11-21T02:24:47;38254.97;;;-138.15;81.44
20897;BME280;10608;42.600;23.398;2023-11-21T02:27:13;38313.94;;;-138.15;81.34
20897;BME280;10608;42.600;23.398;2023-11-21T02:29:38;38337.50;;;-138.15;81.76
20897;BME280;10608;42.600;23.398;2023-11-21T02:32:04;38296.25;;;-138.15;81.92
20897;BME280;10608;42.600;23.398;2023-11-21T02:34:30;38272.66;;;-138.15;82.06
20897;BME280;10608;42.600;23.398;2023-11-21T02:36:56;38241.22;;;-138.15;81.70
20897;BME280;10608;42.600;23.398;2023-11-21T02:39:22;38264.78;;;-138.15;81.60
20897;BME280;10608;42.600;23.398;2023-11-21T02:41:48;38207.81;;;-138.15;82.14
20897;BME280;10608;42.600;23.398;2023-11-21T02:44:14;38211.72;;;-138.15;82.29
20897;BME280;10608;42.600;23.398;2023-11-21T02:46:39;38188.16;;;-138.15;81.60
20897;BME280;10608;42.600;23.398;2023-11-21T02:49:05;38199.94;;;-138.15;81.22
20897;BME280;10608;42.600;23.398;2023-11-21T02:51:36;38217.63;;;-138.15;81.21
20897;BME280;10608;42.600;23.398;2023-11-21T02:54:01;38254.97;;;-138.15;80.51
20897;BME280;10608;42.600;23.398;2023-11-21T02:56:30;38256.94;;;-138.15;80.30
20897;BME280;10608;42.600;23.398;2023-11-21T02:58:56;38266.75;;;-138.15;80.07
20897;BME280;10608;42.600;23.398;2023-11-21T03:01:21;38302.13;;;-138.15;79.98
20897;BME280;10608;42.600;23.398;2023-11-21T03:03:48;38290.34;;;-138.15;80.87
20897;BME280;10608;42.600;23.398;2023-11-21T03:06:17;38262.81;;;-138.15;81.10
20897;BME280;10608;42.600;23.398;2023-11-21T03:08:42;38251.03;;;-138.15;80.39
20897;BME280;10608;42.600;23.398;2023-11-21T03:11:08;38321.78;;;-138.15;79.69
20897;BME280;10608;42.600;23.398;2023-11-21T03:13:33;38308.03;;;-138.15;79.21
20897;BME280;10608;42.600;23.398;2023-11-21T03:15:59;38325.72;;;-138.15;79.78
20897;BME280;10608;42.600;23.398;2023-11-21T03:18:24;38306.06;;;-138.15;79.91
20897;BME280;10608;42.600;23.398;2023-11-21T03:20:52;38266.75;;;-138.15;80.24
20897;BME280;10608;42.600;23.398;2023-11-21T03:23:17;38260.88;;;-138.15;80.61
20897;BME280;10608;42.600;23.398;2023-11-21T03:25:42;38258.91;;;-138.15;80.77
20897;BME280;10608;42.600;23.398;2023-11-21T03:28:08;38247.09;;;-138.15;81.40
20897;BME280;10608;42.600;23.398;2023-11-21T03:30:33;38231.38;;;-138.15;81.91
20897;BME280;10608;42.600;23.398;2023-11-21T03:32:59;38190.13;;;-138.15;82.33
20897;BME280;10608;42.600;23.398;2023-11-21T03:35:24;38197.97;;;-138.15;82.53
20897;BME280;10608;42.600;23.398;2023-11-21T03:37:50;38148.84;;;-138.15;82.78
20897;BME280;10608;42.600;23.398;2023-11-21T03:40:15;38109.53;;;-138.15;83.38
20897;BME280;10608;42.600;23.398;2023-11-21T03:42:40;38038.81;;;-138.15;83.43
20897;BME280;10608;42.600;23.398;2023-11-21T03:45:07;38046.66;;;-138.15;83.42
20897;BME280;10608;42.600;23.398;2023-11-21T03:47:33;37983.78;;;-138.15;83.98
20897;BME280;10608;42.600;23.398;2023-11-21T03:49:59;37993.59;;;-138.15;83.83
20897;BME280;10608;42.600;23.398;2023-11-21T03:52:24;37979.84;;;-138.15;83.27
20897;BME280;10608;42.600;23.398;2023-11-21T03:54:50;37983.78;;;-138.15;83.27
20897;BME280;10608;42.600;23.398;2023-11-21T03:57:16;37968.06;;;-138.15;82.54
20897;BME280;10608;42.600;23.398;2023-11-21T03:59:42;37985.75;;;-138.15;82.13
20897;BME280;10608;42.600;23.398;2023-11-21T04:02:07;38042.72;;;-138.15;82.04
20897;BME280;10608;42.600;23.398;2023-11-21T04:04:33;37993.59;;;-138.15;82.13
20897;BME280;10608;42.600;23.398;2023-11-21T04:06:59;37977.88;;;-138.15;82.78
20897;BME280;10608;42.600;23.398;2023-11-21T04:09:24;37983.78;;;-138.15;82.91
20897;BME280;10608;42.600;23.398;2023-11-21T04:11:51;37952.34;;;-138.15;83.85
20897;BME280;10608;42.600;23.398;2023-11-21T04:14:16;37871.75;;;-138.15;84.16
20897;BME280;10608;42.600;23.398;2023-11-21T04:16:42;37891.41;;;-138.15;84.20
20897;BME280;10608;42.600;23.398;2023-11-21T04:19:08;37846.22;;;-138.15;84.40
20897;BME280;10608;42.600;23.398;2023-11-21T04:21:36;37801.03;;;-138.15;84.59
20897;BME280;10608;42.600;23.398;2023-11-21T04:24:01;37877.66;;;-138.15;84.42
20897;BME280;10608;42.600;23.398;2023-11-21T04:26:27;37765.66;;;-138.15;84.74
20897;BME280;10608;42.600;23.398;2023-11-21T04:28:52;37747.97;;;-138.15;85.06
20897;BME280;10608;42.600;23.398;2023-11-21T04:31:17;37712.59;;;-138.15;84.92
20897;BME280;10608;42.600;23.398;2023-11-21T04:33:43;37692.94;;;-138.15;84.56
20897;BME280;10608;42.600;23.398;2023-11-21T04:36:10;37618.28;;;-138.15;84.39
20897;BME280;10608;42.600;23.398;2023-11-21T04:38:35;37677.22;;;-138.15;84.72
20897;BME280;10608;42.600;23.398;2023-11-21T04:41:01;37667.41;;;-138.15;84.48
20897;BME280;10608;42.600;23.398;2023-11-21T04:43:26;37641.88;;;-138.15;84.41
20897;BME280;10608;42.600;23.398;2023-11-21T04:45:52;37651.69;;;-138.15;85.13
20897;BME280;10608;42.600;23.398;2023-11-21T04:48:17;37580.94;;;-138.15;85.63
20897;BME280;10608;42.600;23.398;2023-11-21T04:50:42;37590.78;;;-138.15;85.68
20897;BME280;10608;42.600;23.398;2023-11-21T04:53:08;37504.31;;;-138.15;85.76
20897;BME280;10608;42.600;23.398;2023-11-21T04:55:33;37494.50;;;-138.15;86.12
20897;BME280;10608;42.600;23.398;2023-11-21T04:57:59;37447.34;;;-138.15;86.39
20897;BME280;10608;42.600;23.398;2023-11-21T05:00:24;37392.31;;;-138.15;86.81
20897;BME280;10608;42.600;23.398;2023-11-21T05:02:49;37337.31;;;-138.15;87.43
20897;BME280;10608;42.600;23.398;2023-11-21T05:05:15;37276.41;;;-138.15;87.52
20897;BME280;10608;42.600;23.398;2023-11-21T05:07:40;37225.31;;;-138.15;87.06
20897;BME280;10608;42.600;23.398;2023-11-21T05:10:07;37235.16;;;-138.15;87.20
20897;BME280;10608;42.600;23.398;2023-11-21T05:12:35;37154.59;;;-138.15;87.38
20897;BME280;10608;42.600;23.398;2023-11-21T05:15:04;37123.16;;;-138.15;87.08
20897;BME280;10608;42.600;23.398;2023-11-21T05:17:39;37154.59;;;-138.15;86.74
20897;BME280;10608;42.600;23.398;2023-11-21T05:20:08;37188.00;;;-138.15;86.19
20897;BME280;10608;42.600;23.398;2023-11-21T05:22:35;37184.06;;;-138.15;85.42
20897;BME280;10608;42.600;23.398;2023-11-21T05:25:02;37189.97;;;-138.15;85.04
20897;BME280;10608;42.600;23.398;2023-11-21T05:27:29;37233.19;;;-138.15;85.11
20897;BME280;10608;42.600;23.398;2023-11-21T05:29:56;37229.25;;;-138.15;84.94
20897;BME280;10608;42.600;23.398;2023-11-21T05:32:21;37239.06;;;-138.15;85.34
20897;BME280;10608;42.600;23.398;2023-11-21T05:34:48;37207.63;;;-138.15;84.82
20897;BME280;10608;42.600;23.398;2023-11-21T05:37:13;37209.59;;;-138.15;84.88
20897;BME280;10608;42.600;23.398;2023-11-21T05:39:39;37241.03;;;-138.15;84.90
20897;BME280;10608;42.600;23.398;2023-11-21T05:42:04;37252.84;;;-138.15;84.45
20897;BME280;10608;42.600;23.398;2023-11-21T05:44:30;37272.47;;;-138.15;84.36
20897;BME280;10608;42.600;23.398;2023-11-21T05:46:55;37237.13;;;-138.15;83.67
20897;BME280;10608;42.600;23.398;2023-11-21T05:49:20;37268.53;;;-138.15;83.76
20897;BME280;10608;42.600;23.398;2023-11-21T05:51:47;37266.59;;;-138.15;83.51
20897;BME280;10608;42.600;23.398;2023-11-21T05:54:12;37254.78;;;-138.15;82.30
20897;BME280;10608;42.600;23.398;2023-11-21T05:56:38;37299.97;;;-138.15;82.26
20897;BME280;10608;42.600;23.398;2023-11-21T05:59:03;37323.56;;;-138.15;82.52
20897;BME280;10608;42.600;23.398;2023-11-21T06:01:28;37364.81;;;-138.15;81.05
20897;BME280;10608;42.600;23.398;2023-11-21T06:03:54;37433.59;;;-138.15;79.78
20897;BME280;10608;42.600;23.398;2023-11-21T06:06:20;37488.59;;;-138.15;79.47
20897;BME280;10608;42.600;23.398;2023-11-21T06:08:48;37490.56;;;-138.15;78.86
20897;BME280;10608;42.600;23.398;2023-11-21T06:11:14;37529.88;;;-138.15;78.67
20897;BME280;10608;42.600;23.398;2023-11-21T06:13:39;37504.31;;;-138.15;78.48
20897;BME280;10608;42.600;23.398;2023-11-21T06:16:05;37567.19;;;-138.15;77.29
20897;BME280;10608;42.600;23.398;2023-11-21T06:18:30;37612.38;;;-138.15;76.75
20897;BME280;10608;42.600;23.398;2023-11-21T06:20:56;37598.63;;;-138.15;76.63
20897;BME280;10608;42.600;23.398;2023-11-21T06:23:21;37439.47;;;-138.15;76.22
20897;BME280;10608;42.600;23.398;2023-11-21T06:25:46;37659.56;;;-138.15;75.41
20897;BME280;10608;42.600;23.398;2023-11-21T06:28:12;37714.56;;;-138.15;74.13
20897;BME280;10608;42.600;23.398;2023-11-21T06:30:37;37734.22;;;-138.15;72.76
20897;BME280;10608;42.600;23.398;2023-11-21T06:33:03;37922.84;;;-138.15;69.75
20897;BME280;10608;42.600;23.398;2023-11-21T06:35:28;38023.06;;;-138.15;68.41
20897;BME280;10608;42.600;23.398;2023-11-21T06:37:55;38034.88;;;-138.15;68.67
20897;BME280;10608;42.600;23.398;2023-11-21T06:40:21;38058.44;;;-138.15;68.00
20897;BME280;10608;42.600;23.398;2023-11-21T06:42:46;38225.50;;;-138.15;64.07
20897;BME280;10608;42.600;23.398;2023-11-21T06:45:12;38465.25;;;-138.15;61.28
20897;BME280;10608;42.600;23.398;2023-11-21T06:47:38;38634.28;;;-138.15;59.66
20897;BME280;10608;42.600;23.398;2023-11-21T06:50:05;38710.94;;;-138.15;58.91
20897;BME280;10608;42.600;23.398;2023-11-21T06:52:32;38821.00;;;-138.15;57.11
20897;BME280;10608;42.600;23.398;2023-11-21T06:54:57;38921.22;;;-138.15;56.95
20897;BME280;10608;42.600;23.398;2023-11-21T06:57:23;38903.53;;;-138.15;56.74
20897;BME280;10608;42.600;23.398;2023-11-21T06:59:48;38962.50;;;-138.15;54.24
20897;BME280;10608;42.600;23.398;2023-11-21T07:02:15;39119.75;;;-138.15;50.54
20897;BME280;10608;42.600;23.398;2023-11-21T07:04:46;39461.81;;;-138.15;46.05
20897;BME280;10608;42.600;23.398;2023-11-21T07:07:12;39585.66;;;-138.15;43.97
20897;BME280;10608;42.600;23.398;2023-11-21T07:09:38;39856.94;;;-138.15;40.97
20897;BME280;10608;42.600;23.398;2023-11-21T07:12:04;39978.84;;;-138.15;39.22
20897;BME280;10608;42.600;23.398;2023-11-21T07:14:31;40165.63;;;-138.15;38.35
20897;BME280;10608;42.600;23.398;2023-11-21T07:16:57;40273.78;;;-138.15;37.47
20897;BME280;10608;42.600;23.398;2023-11-21T07:19:22;40429.09;;;-138.15;37.73
20897;BME280;10608;42.600;23.398;2023-11-21T07:21:48;40554.94;;;-138.15;36.63
20897;BME280;10608;42.600;23.398;2023-11-21T07:24:16;40600.19;;;-138.15;36.84
20897;BME280;10608;42.600;23.398;2023-11-21T07:26:41;40649.34;;;-138.15;37.23
20897;BME280;10608;42.600;23.398;2023-11-21T07:29:08;40674.91;;;-138.15;36.54
20897;BME280;10608;42.600;23.398;2023-11-21T07:31:34;40747.66;;;-138.15;36.79
20897;BME280;10608;42.600;23.398;2023-11-21T07:33:59;40763.41;;;-138.15;36.92
20897;BME280;10608;42.600;23.398;2023-11-21T07:36:25;40598.22;;;-138.15;36.58
20897;BME280;10608;42.600;23.398;2023-11-21T07:38:51;40828.28;;;-138.15;35.95
20897;BME280;10608;42.600;23.398;2023-11-21T07:41:17;40775.19;;;-138.15;36.08
20897;BME280;10608;42.600;23.398;2023-11-21T07:43:43;40830.25;;;-138.15;35.40
20897;BME280;10608;42.600;23.398;2023-11-21T07:46:09;40912.84;;;-138.15;35.69
20897;BME280;10608;42.600;23.398;2023-11-21T07:48:37;40904.97;;;-138.15;36.15
20897;BME280;10608;42.600;23.398;2023-11-21T07:51:03;40975.78;;;-138.15;36.61
20897;BME280;10608;42.600;23.398;2023-11-21T07:53:35;40963.97;;;-138.15;36.36
20897;BME280;10608;42.600;23.398;2023-11-21T07:56:05;40903.00;;;-138.15;35.95
20897;BME280;10608;42.600;23.398;2023-11-21T07:58:31;40790.91;;;-138.15;35.00
20897;BME280;10608;42.600;23.398;2023-11-21T08:00:59;40783.06;;;-138.15;33.76
20897;BME280;10608;42.600;23.398;2023-11-21T08:03:24;40853.84;;;-138.15;33.65
20897;BME280;10608;42.600;23.398;2023-11-21T08:05:51;40954.16;;;-138.15;33.84
20897;BME280;10608;42.600;23.398;2023-11-21T08:08:17;41054.44;;;-138.15;34.16
20897;BME280;10608;42.600;23.398;2023-11-21T08:10:44;41152.78;;;-138.15;34.93
20897;BME280;10608;42.600;23.398;2023-11-21T08:13:11;41284.53;;;-138.15;35.82
20897;BME280;10608;42.600;23.398;2023-11-21T08:15:40;41286.50;;;-138.15;37.07
20897;BME280;10608;42.600;23.398;2023-11-21T08:18:05;41321.91;;;-138.15;38.04
20897;BME280;10608;42.600;23.398;2023-11-21T08:20:33;41357.31;;;-138.15;38.46
20897;BME280;10608;42.600;23.398;2023-11-21T08:23:00;41294.38;;;-138.15;38.26
20897;BME280;10608;42.600;23.398;2023-11-21T08:25:26;41286.50;;;-138.15;38.93
20897;BME280;10608;42.600;23.398;2023-11-21T08:27:52;41290.44;;;-138.15;38.88
20897;BME280;10608;42.600;23.398;2023-11-21T08:30:17;41221.59;;;-138.15;38.68
20897;BME280;10608;42.600;23.398;2023-11-21T08:32:44;41253.06;;;-138.15;38.51
20897;BME280;10608;42.600;23.398;2023-11-21T08:35:10;41357.31;;;-138.15;39.68
20897;BME280;10608;42.600;23.398;2023-11-21T08:37:37;41258.97;;;-138.15;39.97
20897;BME280;10608;42.600;23.398;2023-11-21T08:40:05;41284.53;;;-138.15;40.46
20897;BME280;10608;42.600;23.398;2023-11-21T08:42:34;41251.09;;;-138.15;40.96
20897;BME280;10608;42.600;23.398;2023-11-21T08:45:00;41306.19;;;-138.15;40.90
20897;BME280;10608;42.600;23.398;2023-11-21T08:47:25;41231.44;;;-138.15;40.85
20897;BME280;10608;42.600;23.398;2023-11-21T08:49:51;41176.38;;;-138.15;40.46
20897;BME280;10608;42.600;23.398;2023-11-21T08:52:20;41353.38;;;-138.15;41.53
20897;BME280;10608;42.600;23.398;2023-11-21T08:54:49;41280.59;;;-138.15;42.68
20897;BME280;10608;42.600;23.398;2023-11-21T08:57:22;41359.28;;;-138.15;43.91
20897;BME280;10608;42.600;23.398;2023-11-21T08:59:47;41386.81;;;-138.15;45.56
20897;BME280;10608;42.600;23.398;2023-11-21T09:02:12;41329.78;;;-138.15;46.16
20897;BME280;10608;42.600;23.398;2023-11-21T09:04:38;41349.44;;;-138.15;47.94
20897;BME280;10608;42.600;23.398;2023-11-21T09:07:03;41353.38;;;-138.15;48.60
20897;BME280;10608;42.600;23.398;2023-11-21T09:09:28;41341.56;;;-138.15;49.36
20897;BME280;10608;42.600;23.398;2023-11-21T09:11:55;41316.00;;;-138.15;49.64
20897;BME280;10608;42.600;23.398;2023-11-21T09:14:20;41292.41;;;-138.15;50.12
20897;BME280;10608;42.600;23.398;2023-11-21T09:16:46;41304.22;;;-138.15;51.69
20897;BME280;10608;42.600;23.398;2023-11-21T09:19:12;41329.78;;;-138.15;53.49
20897;BME280;10608;42.600;23.398;2023-11-21T09:21:39;41219.63;;;-138.15;52.95
20897;BME280;10608;42.600;23.398;2023-11-21T09:24:05;41158.69;;;-138.15;52.66
20897;BME280;10608;42.600;23.398;2023-11-21T09:26:30;41211.78;;;-138.15;54.31
20897;BME280;10608;42.600;23.398;2023-11-21T09:28:56;41188.19;;;-138.15;55.82
20897;BME280;10608;42.600;23.398;2023-11-21T09:31:22;41117.38;;;-138.15;57.90
20897;BME280;10608;42.600;23.398;2023-11-21T09:33:49;40999.38;;;-138.15;56.25
20897;BME280;10608;42.600;23.398;2023-11-21T09:36:14;40926.63;;;-138.15;53.56
20897;BME280;10608;42.600;23.398;2023-11-21T09:38:40;41038.72;;;-138.15;52.53
20897;BME280;10608;42.600;23.398;2023-11-21T09:41:11;40983.66;;;-138.15;51.60
20897;BME280;10608;42.600;23.398;2023-11-21T09:43:44;41042.63;;;-138.15;50.88
20897;BME280;10608;42.600;23.398;2023-11-21T09:46:12;40960.03;;;-138.15;50.50
20897;BME280;10608;42.600;23.398;2023-11-21T09:48:42;40922.69;;;-138.15;51.76
20897;BME280;10608;42.600;23.398;2023-11-21T09:51:10;40971.84;;;-138.15;52.63
20897;BME280;10608;42.600;23.398;2023-11-21T09:53:36;40946.28;;;-138.15;52.89
20897;BME280;10608;42.600;23.398;2023-11-21T09:56:03;40989.53;;;-138.15;53.45
20897;BME280;10608;42.600;23.398;2023-11-21T09:58:29;41038.72;;;-138.15;52.06
20897;BME280;10608;42.600;23.398;2023-11-21T10:00:57;40973.81;;;-138.15;51.47
20897;BME280;10608;42.600;23.398;2023-11-21T10:03:23;40818.44;;;-138.15;49.76
20897;BME280;10608;42.600;23.398;2023-11-21T10:05:50;40787.00;;;-138.15;47.08
20897;BME280;10608;42.600;23.398;2023-11-21T10:08:15;41007.25;;;-138.15;45.54
20897;BME280;10608;42.600;23.398;2023-11-21T10:10:45;40940.38;;;-138.15;46.79
20897;BME280;10608;42.600;23.398;2023-11-21T10:13:12;40845.97;;;-138.15;45.57
20897;BME280;10608;42.600;23.398;2023-11-21T10:15:42;40779.13;;;-138.15;43.63
20897;BME280;10608;42.600;23.398;2023-11-21T10:18:14;40804.69;;;-138.15;42.67
20897;BME280;10608;42.600;23.398;2023-11-21T10:20:40;40802.72;;;-138.15;41.61
20897;BME280;10608;42.600;23.398;2023-11-21T10:23:06;40859.75;;;-138.15;42.91
20897;BME280;10608;42.600;23.398;2023-11-21T10:25:32;40977.75;;;-138.15;43.21
20897;BME280;10608;42.600;23.398;2023-11-21T10:27:59;41042.63;;;-138.15;44.29
20897;BME280;10608;42.600;23.398;2023-11-21T10:30:38;41074.09;;;-138.15;46.04
20897;BME280;10608;42.600;23.398;2023-11-21T10:33:07;41011.19;;;-138.15;46.04
20897;BME280;10608;42.600;23.398;2023-11-21T10:35:49;40859.75;;;-138.15;45.86
20897;BME280;10608;42.600;23.398;2023-11-21T10:38:22;41034.78;;;-138.15;46.13
20897;BME280;10608;42.600;23.398;2023-11-21T10:40:49;40940.38;;;-138.15;46.57
20897;BME280;10608;42.600;23.398;2023-11-21T10:43:16;40934.47;;;-138.15;46.56
20897;BME280;10608;42.600;23.398;2023-11-21T10:45:42;40885.31;;;-138.15;46.39
20897;BME280;10608;42.600;23.398;2023-11-21T10:48:12;40830.25;;;-138.15;45.56
20897;BME280;10608;42.600;23.398;2023-11-21T10:50:42;40659.16;;;-138.15;44.58
20897;BME280;10608;42.600;23.398;2023-11-21T10:53:08;40787.00;;;-138.15;43.19
20897;BME280;10608;42.600;23.398;2023-11-21T10:55:34;40842.06;;;-138.15;42.39
20897;BME280;10608;42.600;23.398;2023-11-21T10:58:01;40916.78;;;-138.15;43.32
20897;BME280;10608;42.600;23.398;2023-11-21T11:00:28;40834.19;;;-138.15;43.56
20897;BME280;10608;42.600;23.398;2023-11-21T11:02:55;40818.44;;;-138.15;43.75
20897;BME280;10608;42.600;23.398;2023-11-21T11:05:23;40842.06;;;-138.15;42.71
20897;BME280;10608;42.600;23.398;2023-11-21T11:07:58;40869.59;;;-138.15;42.69
20897;BME280;10608;42.600;23.398;2023-11-21T11:10:30;40792.88;;;-138.15;43.31
20897;BME280;10608;42.600;23.398;2023-11-21T11:12:56;40865.66;;;-138.15;42.57
20897;BME280;10608;42.600;23.398;2023-11-21T11:15:24;40826.31;;;-138.15;42.32
20897;BME280;10608;42.600;23.398;2023-11-21T11:17:49;40842.06;;;-138.15;42.57
20897;BME280;10608;42.600;23.398;2023-11-21T11:20:16;40826.31;;;-138.15;42.05
20897;BME280;10608;42.600;23.398;2023-11-21T11:22:50;40802.72;;;-138.15;42.09
20897;BME280;10608;42.600;23.398;2023-11-21T11:28:11;40938.41;;;-138.15;41.93
20897;BME280;10608;42.600;23.398;2023-11-21T11:38:45;40920.72;;;-138.15;42.46
20897;BME280;10608;42.600;23.398;2023-11-21T11:41:11;40906.94;;;-138.15;42.53
20897;BME280;10608;42.600;23.398;2023-11-21T11:43:37;40869.59;;;-138.15;43.55
20897;BME280;10608;42.600;23.398;2023-11-21T11:46:12;40855.81;;;-138.15;43.13
20897;BME280;10608;42.600;23.398;2023-11-21T11:48:39;40887.28;;;-138.15;42.60
20897;BME280;10608;42.600;23.398;2023-11-21T11:53:47;40790.91;;;-138.15;43.88
20897;BME280;10608;42.600;23.398;2023-11-21T11:58:49;40751.59;;;-138.15;43.88
20897;BME280;10608;42.600;23.398;2023-11-21T12:01:18;40757.50;;;-138.15;44.26
20897;BME280;10608;42.600;23.398;2023-11-21T12:03:44;40781.09;;;-138.15;44.11
20897;BME280;10608;42.600;23.398;2023-11-21T12:06:09;40710.28;;;-138.15;44.17
20897;BME280;10608;42.600;23.398;2023-11-21T12:08:37;40794.84;;;-138.15;44.07
20897;BME280;10608;42.600;23.398;2023-11-21T12:11:03;40787.00;;;-138.15;44.59
20897;BME280;10608;42.600;23.398;2023-11-21T12:13:29;40708.34;;;-138.15;47.22
20897;BME280;10608;42.600;23.398;2023-11-21T12:15:55;40692.59;;;-138.15;48.99
20897;BME280;10608;42.600;23.398;2023-11-21T12:18:21;40731.94;;;-138.15;49.71
20897;BME280;10608;42.600;23.398;2023-11-21T12:20:47;40680.81;;;-138.15;50.53
20897;BME280;10608;42.600;23.398;2023-11-21T12:23:15;40615.91;;;-138.15;52.28
20897;BME280;10608;42.600;23.398;2023-11-21T12:25:42;40625.75;;;-138.15;52.46
20897;BME280;10608;42.600;23.398;2023-11-21T12:28:08;40598.22;;;-138.15;50.91
20897;BME280;10608;42.600;23.398;2023-11-21T12:30:35;40556.91;;;-138.15;52.11
20897;BME280;10608;42.600;23.398;2023-11-21T12:33:04;40649.34;;;-138.15;50.40
20897;BME280;10608;42.600;23.398;2023-11-21T12:35:32;40794.84;;;-138.15;49.63
20897;BME280;10608;42.600;23.398;2023-11-21T12:38:02;40665.06;;;-138.15;50.93
20897;BME280;10608;42.600;23.398;2023-11-21T12:40:28;40663.09;;;-138.15;50.36
20897;BME280;10608;42.600;23.398;2023-11-21T12:42:59;40621.81;;;-138.15;51.34